Time;durP1;ratioP1;P1;durP2;ratioP2;P2;SDS_P1;SDS_P2;PMS_P1;PMS_P2;Temp;Humidity;BMP_temperature;BMP_pressure;BME280_temperature;BME280_humidity;BME280_pressure;Samples;Min_cycle;Max_cycle;Signal;HPM_P1;HPM_P2
2023/12/22 00:00:38;;;;;;;4.10;1.15;;;7.20;99.90;;;6.94;100.00;99685.72;5203910;28;20053;-49
2023/12/22 00:03:10;;;;;;;2.80;0.95;;;7.20;99.90;;;6.66;100.00;99712.47;5188829;28;20049;-50
2023/12/22 00:05:43;;;;;;;1.85;0.55;;;7.00;99.90;;;6.29;100.00;99717.22;5181044;28;20049;-49
2023/12/22 00:08:17;;;;;;;1.77;0.40;;;6.80;99.90;;;5.99;100.00;99699.75;5176654;28;20398;-50
2023/12/22 00:10:49;;;;;;;1.48;0.40;;;6.50;99.90;;;5.78;100.00;99689.50;5188541;28;20060;-49
2023/12/22 00:13:22;;;;;;;1.10;0.45;;;6.30;99.90;;;5.61;100.00;99700.97;5202769;28;20692;-50
2023/12/22 00:15:54;;;;;;;0.57;0.30;;;6.20;99.90;;;5.46;100.00;99714.16;5182180;28;20045;-49
2023/12/22 00:18:26;;;;;;;1.58;0.82;;;6.00;99.90;;;5.40;100.00;99713.94;5179621;28;20045;-47
2023/12/22 00:20:59;;;;;;;3.90;0.70;;;5.90;99.90;;;5.39;100.00;99710.47;5205451;28;20547;-47
2023/12/22 00:23:35;;;;;;;1.52;0.50;;;5.90;99.90;;;5.37;100.00;99713.81;5185665;28;20045;-49
2023/12/22 00:26:08;;;;;;;1.70;0.43;;;5.80;99.90;;;5.34;100.00;99685.28;5193839;28;20077;-49
2023/12/22 00:28:40;;;;;;;1.52;0.38;;;5.80;99.90;;;5.31;100.00;99672.25;5202484;28;20416;-51
2023/12/22 00:31:13;;;;;;;1.70;0.50;;;5.80;99.90;;;5.31;100.00;99667.06;5197525;28;20049;-51
2023/12/22 00:33:45;;;;;;;2.20;0.60;;;5.80;99.90;;;5.35;100.00;99668.97;5180252;28;20057;-48
2023/12/22 00:36:18;;;;;;;2.35;0.70;;;5.80;99.90;;;5.42;100.00;99665.78;5180947;28;20050;-50
2023/12/22 00:38:52;;;;;;;1.40;0.65;;;5.80;99.90;;;5.43;100.00;99654.63;5198567;28;20416;-49
2023/12/22 00:41:24;;;;;;;3.83;1.13;;;5.80;99.90;;;5.44;100.00;99667.59;5191166;28;20057;-48
2023/12/22 00:43:57;;;;;;;2.22;0.80;;;5.80;99.90;;;5.46;100.00;99677.97;5197050;28;20401;-49
2023/12/22 00:46:29;;;;;;;4.50;0.75;;;5.90;99.90;;;5.48;100.00;99693.53;5181992;28;20053;-48
2023/12/22 00:49:01;;;;;;;3.60;1.10;;;5.90;99.90;;;5.52;100.00;99706.66;5200662;28;20525;-50
2023/12/22 00:51:34;;;;;;;2.72;0.75;;;5.90;99.90;;;5.57;100.00;99714.59;5201051;28;20520;-48
2023/12/22 00:54:07;;;;;;;1.45;0.68;;;5.90;99.90;;;5.59;100.00;99711.22;5202299;28;20068;-49
2023/12/22 00:56:40;;;;;;;2.67;0.60;;;5.90;99.90;;;5.63;100.00;99705.34;5181269;28;20266;-51
2023/12/22 00:59:12;;;;;;;6.78;0.82;;;6.00;99.90;;;5.70;100.00;99712.50;5200082;28;20054;-48
2023/12/22 01:01:45;;;;;;;4.35;0.88;;;6.00;99.90;;;5.75;100.00;99706.63;5182937;28;20049;-49
2023/12/22 01:04:17;;;;;;;2.05;0.80;;;6.10;99.90;;;5.76;100.00;99709.28;5201730;28;20524;-48
2023/12/22 01:06:49;;;;;;;4.43;0.85;;;6.10;99.90;;;5.80;100.00;99715.41;5179655;28;20059;-49
2023/12/22 01:09:23;;;;;;;5.75;0.77;;;6.20;99.90;;;5.84;100.00;99713.00;5186324;28;20053;-48
2023/12/22 01:11:55;;;;;;;2.90;0.80;;;6.20;99.90;;;5.86;100.00;99711.34;5178819;28;20479;-50
2023/12/22 01:14:28;;;;;;;3.03;0.80;;;6.20;99.90;;;5.91;100.00;99706.38;5183087;28;20054;-49
2023/12/22 01:17:01;;;;;;;2.60;0.60;;;6.20;99.90;;;5.93;100.00;99695.28;5202121;28;20087;-49
2023/12/22 01:19:33;;;;;;;1.45;0.77;;;6.20;99.90;;;5.97;100.00;99711.78;5198739;28;20077;-50
2023/12/22 01:22:05;;;;;;;3.20;0.73;;;6.30;99.90;;;5.99;100.00;99705.81;5202518;28;20037;-48
2023/12/22 01:24:42;;;;;;;4.50;1.27;;;6.30;99.90;;;6.03;100.00;99713.72;5198709;28;20409;-48
2023/12/22 01:27:15;;;;;;;2.50;0.80;;;6.30;99.90;;;6.07;100.00;99732.00;5200090;28;20056;-50
2023/12/22 01:29:47;;;;;;;2.67;0.68;;;6.40;99.90;;;6.09;100.00;99738.09;5181657;28;20500;-49
2023/12/22 01:32:20;;;;;;;3.00;0.90;;;6.40;99.90;;;6.13;100.00;99741.66;5175606;28;20045;-51
2023/12/22 01:34:52;;;;;;;2.65;0.52;;;6.40;99.90;;;6.15;100.00;99734.84;5202100;28;20136;-49
2023/12/22 01:37:24;;;;;;;4.47;0.90;;;6.40;99.90;;;6.18;100.00;99732.34;5202150;28;20057;-49
2023/12/22 01:39:58;;;;;;;5.60;0.98;;;6.40;99.90;;;6.21;100.00;99733.34;5183332;28;20043;-49
2023/12/22 01:42:30;;;;;;;2.53;0.70;;;6.50;99.90;;;6.23;100.00;99735.97;5197715;28;20049;-50
2023/12/22 01:45:03;;;;;;;5.40;1.02;;;6.50;99.90;;;6.23;100.00;99718.75;5197433;28;20049;-49
2023/12/22 01:47:36;;;;;;;3.75;0.63;;;6.50;99.90;;;6.22;100.00;99698.00;5186698;28;20065;-49
2023/12/22 01:50:11;;;;;;;2.20;0.57;;;6.50;99.90;;;6.21;100.00;99694.53;5199327;28;20060;-49
2023/12/22 01:52:44;;;;;;;1.73;0.65;;;6.50;99.90;;;6.22;100.00;99693.69;5183556;28;20485;-50
2023/12/22 01:55:19;;;;;;;2.22;0.85;;;6.50;99.90;;;6.24;100.00;99722.22;5194061;28;20045;-49
2023/12/22 01:57:52;;;;;;;5.47;0.90;;;6.50;99.90;;;6.24;100.00;99715.31;5182000;28;20054;-50
2023/12/22 02:00:24;;;;;;;5.60;1.17;;;6.50;99.90;;;6.27;100.00;99745.63;5196566;28;20453;-50
2023/12/22 02:02:56;;;;;;;6.45;1.55;;;6.60;99.90;;;6.29;100.00;99754.31;5198799;28;20468;-50
2023/12/22 02:05:29;;;;;;;4.13;0.93;;;6.60;99.90;;;6.27;100.00;99744.75;5199142;28;20136;-49
2023/12/22 02:08:02;;;;;;;1.30;0.70;;;6.50;99.90;;;6.23;100.00;99749.81;5195004;28;20057;-50
2023/12/22 02:10:37;;;;;;;2.88;0.82;;;6.50;99.90;;;6.22;100.00;99744.59;5181952;28;20046;-50
2023/12/22 02:13:10;;;;;;;1.52;0.85;;;6.50;99.90;;;6.23;100.00;99749.81;5199080;28;20144;-49
2023/12/22 02:15:46;;;;;;;1.92;0.65;;;6.50;99.90;;;6.22;100.00;99737.69;5200680;28;20037;-50
2023/12/22 02:18:26;;;;;;;5.15;1.30;;;6.50;99.90;;;6.21;100.00;99742.81;5195413;28;20425;-50
2023/12/22 02:20:58;;;;;;;5.55;1.05;;;6.50;99.90;;;6.16;100.00;99737.47;5216198;28;20057;-50
2023/12/22 02:23:32;;;;;;;5.68;1.30;;;6.50;99.90;;;6.16;100.00;99742.66;5157904;28;20065;-48
2023/12/22 02:26:13;;;;;;;2.50;1.20;;;6.40;99.90;;;6.18;100.00;99741.00;5162224;28;20045;-50
2023/12/22 02:28:47;;;;;;;4.05;0.90;;;6.40;99.90;;;6.16;100.00;99736.59;5159537;28;20514;-51
2023/12/22 02:31:31;;;;;;;3.58;0.95;;;6.40;99.90;;;6.16;100.00;99742.66;5167984;28;20544;-49
2023/12/22 02:34:06;;;;;;;3.28;0.90;;;6.40;99.90;;;6.16;100.00;99742.66;5164968;28;20046;-51
2023/12/22 02:36:41;;;;;;;2.17;0.82;;;6.40;99.90;;;6.19;100.00;99740.19;5156149;28;20429;-50
2023/12/22 02:39:15;;;;;;;4.47;0.93;;;6.40;99.90;;;6.22;100.00;99747.16;5158884;28;20047;-50
2023/12/22 02:41:48;;;;;;;3.03;0.80;;;6.40;99.90;;;6.24;100.00;99738.63;5184235;28;20050;-49
2023/12/22 02:44:21;;;;;;;4.80;1.40;;;6.40;99.90;;;6.27;100.00;99713.69;5176235;28;20053;-49
2023/12/22 02:46:53;;;;;;;5.38;1.52;;;6.50;99.90;;;6.25;100.00;99716.22;5184870;28;20046;-49
2023/12/22 02:49:26;;;;;;;3.25;1.10;;;6.50;99.90;;;6.27;100.00;99724.06;5169904;28;20054;-49
2023/12/22 02:51:58;;;;;;;6.00;1.27;;;6.50;99.90;;;6.29;100.00;99704.28;5172962;28;20045;-50
2023/12/22 02:54:33;;;;;;;4.03;1.20;;;6.60;99.90;;;6.30;100.00;99690.50;5171507;28;20413;-51
2023/12/22 02:57:05;;;;;;;4.05;1.20;;;6.50;99.90;;;6.30;100.00;99725.03;5177035;28;20063;-47
2023/12/22 02:59:38;;;;;;;8.48;1.38;;;6.60;99.90;;;6.35;100.00;99738.13;5185465;28;20061;-49
2023/12/22 03:02:12;;;;;;;6.20;1.20;;;6.60;99.90;;;6.37;100.00;99731.28;5167296;28;20053;-50
2023/12/22 03:04:46;;;;;;;3.78;1.30;;;6.60;99.90;;;6.41;100.00;99735.75;5180508;28;20061;-48
2023/12/22 03:07:18;;;;;;;4.70;1.35;;;6.70;99.90;;;6.44;100.00;99735.84;5185343;28;20061;-50
2023/12/22 03:09:52;;;;;;;4.70;1.05;;;6.70;99.90;;;6.44;100.00;99735.84;5171425;28;20046;-48
2023/12/22 03:12:24;;;;;;;3.60;1.15;;;6.70;99.90;;;6.44;100.00;99702.19;5171322;28;20054;-49
2023/12/22 03:14:57;;;;;;;3.58;1.08;;;6.70;99.90;;;6.43;100.00;99710.78;5165810;28;20050;-48
2023/12/22 03:17:29;;;;;;;4.72;1.10;;;6.70;99.90;;;6.44;100.00;99717.72;5172445;28;20058;-51
2023/12/22 03:20:01;;;;;;;7.20;2.00;;;6.70;99.90;;;6.44;100.00;99722.91;5165499;28;20225;-49
2023/12/22 03:22:34;;;;;;;4.93;1.50;;;6.70;99.90;;;6.44;100.00;99717.72;5172150;28;20065;-48
2023/12/22 03:25:08;;;;;;;2.20;1.00;;;6.70;99.90;;;6.47;100.00;99717.84;5175855;28;20060;-50
2023/12/22 03:27:41;;;;;;;2.60;1.23;;;6.70;99.90;;;6.49;100.00;99739.47;5168134;28;20050;-51
2023/12/22 03:30:14;;;;;;;3.33;1.25;;;6.70;99.90;;;6.51;100.00;99732.63;5166826;28;20050;-50
2023/12/22 03:32:46;;;;;;;4.15;1.08;;;6.70;99.90;;;6.51;100.00;99714.50;5183597;28;20050;-49
2023/12/22 03:35:19;;;;;;;2.95;1.02;;;6.70;99.90;;;6.52;100.00;99716.31;5173392;28;20057;-49
2023/12/22 03:37:51;;;;;;;3.00;1.05;;;6.70;99.90;;;6.52;100.00;99722.34;5185940;28;20081;-49
2023/12/22 03:40:25;;;;;;;1.88;0.77;;;6.70;99.90;;;6.55;100.00;99734.50;5167181;28;20053;-50
2023/12/22 03:42:57;;;;;;;2.38;0.95;;;6.70;99.90;;;6.55;100.00;99726.75;5170973;28;20046;-51
2023/12/22 03:45:30;;;;;;;2.70;0.90;;;6.70;99.90;;;6.56;100.00;99728.50;5172280;28;20053;-51
2023/12/22 03:48:02;;;;;;;1.67;0.85;;;6.70;99.90;;;6.57;100.00;99727.66;5171262;28;20045;-52
2023/12/22 03:50:35;;;;;;;2.97;1.13;;;6.70;99.90;;;6.59;100.00;99738.97;5166309;28;20054;-51
2023/12/22 03:53:07;;;;;;;6.50;1.75;;;6.80;99.90;;;6.60;100.00;99735.56;5180778;28;20049;-48
2023/12/22 03:55:41;;;;;;;4.68;1.50;;;6.80;99.90;;;6.60;100.00;99743.31;5166757;28;20042;-49
2023/12/22 03:58:13;;;;;;;12.50;2.05;;;6.80;99.90;;;6.61;100.00;99736.44;5171336;28;20037;-49
2023/12/22 04:00:46;;;;;;;3.90;1.10;;;6.80;99.90;;;6.64;100.00;99744.28;5184616;28;20424;-49
2023/12/22 04:03:18;;;;;;;7.88;1.55;;;6.80;99.90;;;6.65;100.00;99746.97;5169285;28;20053;-49
2023/12/22 04:05:50;;;;;;;11.27;1.70;;;6.80;99.90;;;6.67;100.00;99737.53;5167841;28;20046;-50
2023/12/22 04:08:23;;;;;;;7.50;1.60;;;6.80;99.90;;;6.75;100.00;99728.28;5164724;28;20532;-52
2023/12/22 04:10:57;;;;;;;6.03;1.40;;;6.90;99.90;;;6.83;100.00;99738.00;5175435;28;20045;-51
2023/12/22 04:13:29;;;;;;;7.95;1.95;;;7.00;99.90;;;6.85;100.00;99733.78;5165581;28;20141;-51
2023/12/22 04:16:04;;;;;;;9.50;1.55;;;7.00;99.90;;;6.89;100.00;99743.41;5165007;28;20042;-48
2023/12/22 04:18:36;;;;;;;7.05;1.50;;;7.10;99.90;;;6.97;100.00;99735.03;5171727;28;20045;-49
2023/12/22 04:21:09;;;;;;;8.65;1.63;;;7.20;99.90;;;7.04;100.00;99746.47;5168333;28;20068;-50
2023/12/22 04:23:41;;;;;;;9.68;1.58;;;7.20;99.90;;;7.07;100.00;99746.59;5166839;28;20412;-49
2023/12/22 04:26:15;;;;;;;7.38;1.23;;;7.30;99.90;;;7.07;100.00;99754.38;5172267;28;20045;-50
2023/12/22 04:28:47;;;;;;;3.45;1.02;;;7.30;99.90;;;7.08;100.00;99759.59;5168081;28;20049;-52
2023/12/22 04:31:20;;;;;;;5.60;1.33;;;7.30;99.90;;;7.10;100.00;99743.19;5159270;28;20406;-51
2023/12/22 04:33:52;;;;;;;8.68;1.17;;;7.30;99.90;;;7.09;100.00;99752.69;5164008;28;20061;-49
2023/12/22 04:36:25;;;;;;;7.00;1.27;;;7.30;99.90;;;7.04;100.00;99739.63;5163826;28;20065;-47
2023/12/22 04:38:57;;;;;;;4.47;1.05;;;7.30;99.90;;;7.03;100.00;99735.22;5167331;28;20051;-49
2023/12/22 04:41:31;;;;;;;8.02;1.30;;;7.30;99.90;;;7.03;100.00;99735.22;5167901;28;20061;-51
2023/12/22 04:44:03;;;;;;;5.47;1.40;;;7.30;99.90;;;7.02;100.00;99714.47;5185890;28;20057;-49
2023/12/22 04:46:36;;;;;;;5.63;1.30;;;7.30;99.90;;;7.01;100.00;99717.88;5163548;28;20041;-50
2023/12/22 04:49:08;;;;;;;8.38;1.20;;;7.20;99.90;;;7.00;100.00;99729.97;5181758;28;20046;-49
2023/12/22 04:51:40;;;;;;;7.00;1.48;;;7.20;99.90;;;7.00;100.00;99721.31;5163666;28;20045;-50
2023/12/22 04:54:13;;;;;;;4.95;1.35;;;7.20;99.90;;;6.97;100.00;99729.84;5166976;28;20049;-49
2023/12/22 04:56:47;;;;;;;6.93;1.70;;;7.20;99.90;;;7.01;100.00;99734.31;5163818;28;20050;-48
2023/12/22 04:59:19;;;;;;;5.22;1.67;;;7.30;99.90;;;7.07;100.00;99755.25;5166995;28;20049;-49
2023/12/22 05:01:51;;;;;;;10.00;1.98;;;7.30;99.90;;;7.10;100.00;99738.91;5165408;28;20053;-49
2023/12/22 05:04:24;;;;;;;6.25;1.90;;;7.30;99.90;;;7.11;100.00;99745.88;5162012;28;20058;-49
2023/12/22 05:06:56;;;;;;;7.15;1.30;;;7.30;99.90;;;7.14;100.00;99756.31;5164305;28;20420;-50
2023/12/22 05:09:28;;;;;;;4.65;1.33;;;7.30;99.90;;;7.14;100.00;99771.88;5162108;28;20433;-48
2023/12/22 05:12:02;;;;;;;8.15;1.60;;;7.30;99.90;;;7.17;100.00;99777.16;5163847;28;20061;-50
2023/12/22 05:14:35;;;;;;;8.68;1.48;;;7.40;99.90;;;7.18;100.00;99768.56;5177750;28;20050;-49
2023/12/22 05:17:07;;;;;;;9.55;1.67;;;7.40;99.90;;;7.16;100.00;99774.50;5166393;28;20045;-49
2023/12/22 05:19:39;;;;;;;11.07;1.90;;;7.40;99.90;;;7.17;100.00;99755.53;5167708;28;20053;-51
2023/12/22 05:22:12;;;;;;;10.52;2.22;;;7.40;99.90;;;7.19;100.00;99765.13;5170914;28;20394;-50
2023/12/22 05:24:44;;;;;;;8.05;1.90;;;7.40;99.90;;;7.20;100.00;99761.69;5171972;28;20137;-51
2023/12/22 05:27:19;;;;;;;9.23;2.17;;;7.40;99.90;;;7.25;100.00;99762.72;5164320;28;20080;-47
2023/12/22 05:29:51;;;;;;;9.60;1.73;;;7.50;99.90;;;7.31;100.00;99765.53;5162699;28;20057;-50
2023/12/22 05:32:23;;;;;;;7.65;1.33;;;7.50;99.90;;;7.38;100.00;99776.09;5161100;28;20046;-51
2023/12/22 05:34:56;;;;;;;8.05;1.52;;;7.60;99.90;;;7.46;100.00;99770.28;5180028;28;20136;-50
2023/12/22 05:37:28;;;;;;;6.70;1.80;;;7.60;99.90;;;7.55;100.00;99795.63;5170459;28;20421;-51
2023/12/22 05:40:00;;;;;;;8.80;1.52;;;7.70;99.90;;;7.61;100.00;99803.59;5167290;28;20048;-50
2023/12/22 05:42:34;;;;;;;6.40;1.63;;;7.80;99.90;;;7.67;100.00;99770.06;5162436;28;20053;-48
2023/12/22 05:45:10;;;;;;;7.88;1.33;;;7.90;99.90;;;7.69;100.00;99781.34;5164719;28;20508;-50
2023/12/22 05:47:43;;;;;;;6.05;1.73;;;7.90;99.90;;;7.73;100.00;99778.03;5161638;28;20144;-50
2023/12/22 05:50:16;;;;;;;5.40;1.42;;;7.90;99.90;;;7.78;100.00;99792.03;5179547;28;20521;-48
2023/12/22 05:52:49;;;;;;;8.55;1.70;;;8.00;99.90;;;7.81;100.00;99806.78;5165084;28;20160;-50
2023/12/22 05:55:21;;;;;;;7.07;1.73;;;8.00;99.90;;;7.81;100.00;99778.25;5157639;28;20042;-51
2023/12/22 05:57:55;;;;;;;11.77;1.48;;;8.00;99.90;;;7.86;100.00;99795.72;5160144;28;20082;-48
2023/12/22 06:00:30;;;;;;;8.48;1.60;;;8.00;99.90;;;7.85;100.00;99767.13;5160955;28;20049;-49
2023/12/22 06:03:03;;;;;;;9.38;2.05;;;8.10;99.90;;;7.87;100.00;99784.50;5162475;28;20054;-49
2023/12/22 06:05:36;;;;;;;6.68;1.40;;;8.10;99.90;;;7.92;100.00;99786.34;5180068;28;20468;-51
2023/12/22 06:08:09;;;;;;;6.75;1.80;;;8.10;99.90;;;7.94;100.00;99797.66;5179642;28;20062;-49
2023/12/22 06:10:41;;;;;;;10.32;1.30;;;8.20;99.90;;;7.93;100.00;99793.31;5158887;28;20518;-50
2023/12/22 06:13:15;;;;;;;8.25;1.40;;;8.10;99.90;;;7.93;100.00;99799.38;5164153;28;20057;-52
2023/12/22 06:15:48;;;;;;;8.63;1.65;;;8.10;99.90;;;7.94;100.00;99808.03;5176342;28;20046;-49
2023/12/22 06:18:21;;;;;;;7.47;1.50;;;8.20;99.90;;;7.99;100.00;99814.25;5175005;28;20567;-49
2023/12/22 06:20:54;;;;;;;8.30;1.98;;;8.20;99.90;;;8.01;100.00;99813.44;5163752;28;20531;-50
2023/12/22 06:23:26;;;;;;;9.95;2.28;;;8.20;99.90;;;8.01;100.00;99812.56;5166621;28;20052;-50
2023/12/22 06:25:59;;;;;;;9.18;1.65;;;8.20;99.90;;;8.01;100.00;99820.34;5161635;28;20046;-49
2023/12/22 06:28:32;;;;;;;8.48;1.35;;;8.20;99.90;;;8.01;100.00;99803.06;5159928;28;20050;-49
2023/12/22 06:31:05;;;;;;;8.63;1.30;;;8.20;99.90;;;8.04;100.00;99802.28;5160041;28;20050;-49
2023/12/22 06:33:37;;;;;;;7.28;1.27;;;8.20;99.90;;;8.03;100.00;99805.72;5161400;28;20069;-48
2023/12/22 06:36:19;;;;;;;6.38;1.25;;;8.20;99.90;;;8.05;100.00;99814.44;5184624;28;20049;-50
2023/12/22 06:38:53;;;;;;;6.78;1.13;;;8.30;99.90;;;8.05;100.00;99810.13;5167288;28;20589;-48
2023/12/22 06:41:27;;;;;;;4.15;1.35;;;8.30;99.90;;;8.07;100.00;99813.63;5163564;28;20054;-49
2023/12/22 06:44:02;;;;;;;8.15;1.45;;;8.30;99.90;;;8.10;100.00;99821.50;5162949;28;20046;-52
2023/12/22 06:46:34;;;;;;;5.72;2.08;;;8.30;99.90;;;8.10;100.00;99813.72;5169200;28;20046;-50
2023/12/22 06:49:07;;;;;;;12.07;1.80;;;8.30;99.90;;;8.11;100.00;99809.41;5184726;28;20060;-51
2023/12/22 06:51:39;;;;;;;6.70;1.70;;;8.30;99.90;;;8.16;100.00;99828.59;5172466;28;20061;-50
2023/12/22 06:54:11;;;;;;;11.68;1.45;;;8.30;99.90;;;8.16;100.00;99828.59;5174527;28;20497;-51
2023/12/22 06:56:44;;;;;;;8.82;1.50;;;8.30;99.90;;;8.19;100.00;99828.69;5177155;28;20061;-51
2023/12/22 06:59:17;;;;;;;9.20;1.52;;;8.30;99.90;;;8.18;100.00;99831.25;5166571;28;20509;-49
2023/12/22 07:01:50;;;;;;;11.57;1.70;;;8.40;99.90;;;8.19;100.00;99818.28;5176763;28;20735;-51
2023/12/22 07:04:22;;;;;;;9.25;1.30;;;8.40;99.90;;;8.21;100.00;99842.56;5178787;28;20050;-49
2023/12/22 07:06:54;;;;;;;5.10;1.00;;;8.40;99.90;;;8.17;100.00;99835.56;5184028;28;20532;-49
2023/12/22 07:09:33;;;;;;;6.97;1.10;;;8.40;99.90;;;8.01;100.00;99844.59;5169818;28;20054;-48
2023/12/22 07:12:06;;;;;;;2.13;0.90;;;8.30;99.90;;;7.73;100.00;99831.63;5166391;28;20054;-50
2023/12/22 07:14:40;;;;;;;2.28;0.65;;;8.10;99.90;;;7.49;100.00;99826.53;5161564;28;20049;-50
2023/12/22 07:17:13;;;;;;;7.38;1.30;;;7.90;99.90;;;7.34;100.00;99827.81;5180063;28;20049;-49
2023/12/22 07:19:45;;;;;;;6.22;1.15;;;7.80;99.90;;;7.26;100.00;99818.91;5176178;28;20069;-50
2023/12/22 07:22:17;;;;;;;5.78;0.98;;;7.70;99.90;;;7.26;100.00;99833.59;5174817;28;20056;-50
2023/12/22 07:24:52;;;;;;;4.90;1.45;;;7.60;99.90;;;7.24;100.00;99824.91;5177223;28;20054;-48
2023/12/22 07:27:25;;;;;;;5.95;1.60;;;7.60;99.90;;;7.21;100.00;99827.38;5175343;28;20050;-48
2023/12/22 07:29:59;;;;;;;7.43;1.20;;;7.60;99.90;;;7.20;100.00;99835.97;5176275;28;20057;-50
2023/12/22 07:32:32;;;;;;;5.65;1.60;;;7.60;99.90;;;7.19;100.00;99822.16;5180977;28;20424;-49
2023/12/22 07:35:07;;;;;;;5.97;1.23;;;7.50;99.90;;;7.15;100.00;99840.13;5165128;28;20049;-50
2023/12/22 07:37:40;;;;;;;5.20;1.33;;;7.50;99.90;;;7.13;100.00;99842.69;5176949;28;20144;-49
2023/12/22 07:40:13;;;;;;;6.05;1.45;;;7.50;99.90;;;7.11;100.00;99833.06;5176729;28;20140;-50
2023/12/22 07:42:45;;;;;;;6.28;1.70;;;7.40;99.90;;;7.14;100.00;99834.06;5183869;28;20251;-49
2023/12/22 07:45:19;;;;;;;10.18;2.25;;;7.40;99.90;;;7.14;100.00;99828.00;5185044;28;20179;-50
2023/12/22 07:47:52;;;;;;;6.47;1.85;;;7.50;99.90;;;7.13;100.00;99819.34;5178747;28;20050;-49
2023/12/22 07:50:27;;;;;;;7.15;2.30;;;7.40;99.90;;;7.16;100.00;99821.16;5160507;28;20054;-51
2023/12/22 07:53:00;;;;;;;9.80;2.20;;;7.40;99.90;;;7.21;100.00;99823.06;5172676;28;20057;-49
2023/12/22 07:55:32;;;;;;;9.00;2.25;;;7.50;99.90;;;7.23;100.00;99829.16;5178135;28;20060;-48
2023/12/22 07:58:05;;;;;;;8.30;1.73;;;7.50;99.90;;;7.25;100.00;99827.53;5175708;28;20057;-48
2023/12/22 08:00:39;;;;;;;11.23;1.98;;;7.50;99.90;;;7.27;100.00;99825.88;5165404;28;20088;-48
2023/12/22 08:03:11;;;;;;;6.18;2.10;;;7.50;99.90;;;7.32;100.00;99834.69;5170677;28;20065;-50
2023/12/22 08:05:43;;;;;;;15.25;3.55;;;7.60;99.90;;;7.35;100.00;99823.50;5176597;28;20100;-51
2023/12/22 08:08:16;;;;;;;5.93;2.42;;;7.60;99.90;;;7.39;100.00;99834.88;5188944;28;20041;-50
2023/12/22 08:10:48;;;;;;;12.60;3.50;;;7.60;99.90;;;7.43;100.00;99832.41;5172737;28;20061;-49
2023/12/22 08:13:21;;;;;;;14.98;3.65;;;7.70;99.90;;;7.50;100.00;99824.03;5169536;28;20456;-50
2023/12/22 08:15:55;;;;;;;12.77;3.10;;;7.70;99.90;;;7.57;100.00;99836.34;5169626;28;20386;-50
2023/12/22 08:18:27;;;;;;;15.73;3.60;;;7.70;99.90;;;7.62;100.00;99844.25;5168571;28;20056;-49
2023/12/22 08:20:59;;;;;;;19.30;3.03;;;7.80;99.90;;;7.69;100.00;99828.03;5160850;28;20525;-51
2023/12/22 08:23:32;;;;;;;17.70;3.03;;;7.90;99.90;;;7.73;100.00;99811.75;5173921;28;20064;-50
2023/12/22 08:26:04;;;;;;;17.27;3.05;;;7.90;99.90;;;7.70;100.00;99811.66;5162478;28;20042;-50
2023/12/22 08:28:37;;;;;;;11.82;2.20;;;7.90;99.90;;;7.71;100.00;99813.44;5172050;28;20128;-49
2023/12/22 08:31:12;;;;;;;20.50;3.30;;;8.00;99.90;;;7.74;100.00;99799.66;5162912;28;20541;-50
2023/12/22 08:33:45;;;;;;;;;;;7.90;99.90;;;7.78;100.00;99805.00;5165256;28;20057;-51
2023/12/22 08:36:17;;;;;;;10.38;3.30;;;8.00;99.90;;;7.79;100.00;99834.41;5150214;28;19948;-51
2023/12/22 08:38:49;;;;;;;13.77;2.70;;;8.00;99.90;;;7.77;100.00;99831.78;5195182;28;20040;-48
2023/12/22 08:41:22;;;;;;;11.32;2.63;;;8.00;99.90;;;7.79;100.00;99827.50;5190425;28;20049;-50
2023/12/22 08:43:55;;;;;;;12.05;3.58;;;8.00;99.90;;;7.85;100.00;99843.25;5195287;28;20061;-50
2023/12/22 08:46:30;;;;;;;10.30;2.33;;;8.10;99.90;;;8.01;100.00;99822.94;5187523;28;20050;-49
2023/12/22 08:49:04;;;;;;;17.30;2.72;;;8.20;99.90;;;8.61;100.00;99830.78;5183355;28;20093;-50
2023/12/22 08:51:36;;;;;;;14.27;2.63;;;8.70;99.90;;;8.59;100.00;99824.63;5207086;28;20768;-49
2023/12/22 08:54:08;;;;;;;14.80;3.35;;;8.70;99.90;;;8.49;100.00;99807.06;5181635;28;20499;-50
2023/12/22 08:56:41;;;;;;;18.95;3.85;;;8.70;99.90;;;8.44;100.00;99801.72;5195197;28;20511;-51
2023/12/22 08:59:13;;;;;;;15.30;2.75;;;8.70;99.90;;;8.45;100.00;99815.59;5189135;28;20526;-49
2023/12/22 09:01:47;;;;;;;18.58;3.03;;;8.70;99.90;;;8.44;100.00;99812.13;5212694;28;20056;-49
2023/12/22 09:04:22;;;;;;;14.73;3.88;;;8.70;99.90;;;8.48;100.00;99815.69;5187210;28;20060;-50
2023/12/22 09:06:54;;;;;;;;;;;8.70;99.90;;;8.49;100.00;99809.66;5183231;28;20060;-49
2023/12/22 09:09:27;;;;;;;10.98;2.47;;;8.70;99.90;;;8.75;100.00;99819.03;5179841;28;19928;-47
2023/12/22 09:12:00;;;;;;;14.13;2.95;;;8.90;99.90;;;8.81;100.00;99820.91;5185161;28;20049;-49
2023/12/22 09:14:33;;;;;;;15.40;3.72;;;8.90;99.90;;;8.78;100.00;99831.22;5182802;28;20049;-50
2023/12/22 09:17:06;;;;;;;15.27;2.78;;;8.90;99.90;;;8.76;100.00;99818.19;5181408;28;20153;-49
2023/12/22 09:19:40;;;;;;;9.73;2.63;;;8.90;99.90;;;8.77;100.00;99814.75;5192745;28;20059;-49
2023/12/22 09:22:12;;;;;;;15.05;3.53;;;8.90;99.90;;;8.76;100.00;99802.59;5206763;28;20060;-49
2023/12/22 09:24:48;;;;;;;15.27;2.60;;;8.90;99.90;;;8.73;100.00;99810.28;5204928;28;20045;-50
2023/12/22 09:27:21;;;;;;;10.48;2.35;;;8.90;99.90;;;8.70;100.00;99803.31;5218147;28;20412;-49
2023/12/22 09:29:53;;;;;;;11.10;3.08;;;8.90;99.90;;;8.71;100.00;99796.38;5182732;28;20050;-51
2023/12/22 09:32:27;;;;;;;9.90;2.25;;;8.90;99.90;;;8.74;100.00;99791.28;5186477;28;20051;-50
2023/12/22 09:35:00;;;;;;;8.93;2.65;;;8.90;99.90;;;8.76;100.00;99801.72;5205722;28;20091;-50
2023/12/22 09:37:33;;;;;;;8.98;2.15;;;8.90;99.90;;;8.74;100.00;99791.28;5207645;28;20045;-50
2023/12/22 09:40:09;;;;;;;11.38;2.38;;;8.90;99.90;;;8.74;100.00;99786.09;5201599;28;20050;-52
2023/12/22 09:42:43;;;;;;;10.00;2.95;;;8.90;99.90;;;8.77;100.00;99780.97;5188808;28;20045;-49
2023/12/22 09:45:19;;;;;;;10.68;2.33;;;8.90;99.90;;;8.82;100.00;99791.47;5200220;28;20057;-50
2023/12/22 09:47:54;;;;;;;17.00;3.58;;;8.90;99.90;;;8.85;100.00;99782.03;5184744;28;20042;-50
2023/12/22 09:50:28;;;;;;;7.38;1.80;;;9.00;99.90;;;8.86;100.00;99788.97;5203958;28;20045;-49
2023/12/22 09:53:01;;;;;;;7.45;1.80;;;9.00;99.90;;;8.90;100.00;99776.97;5188429;28;20203;-52
2023/12/22 09:55:35;;;;;;;8.90;2.38;;;9.00;99.90;;;8.93;100.00;99777.94;5181626;28;20041;-48
2023/12/22 09:58:10;;;;;;;10.30;2.13;;;9.00;99.90;;;8.95;100.00;99778.84;5182127;28;20512;-51
2023/12/22 10:00:46;;;;;;;8.70;2.88;;;9.00;99.90;;;8.95;100.00;99770.16;5187392;28;20052;-51
2023/12/22 10:03:21;;;;;;;11.05;2.78;;;9.10;99.90;;;8.97;100.00;99766.75;5195298;28;20052;-52
2023/12/22 10:05:53;;;;;;;8.02;2.30;;;9.10;99.90;;;9.01;100.00;99761.63;5209658;28;20037;-51
2023/12/22 10:08:27;;;;;;;9.15;2.33;;;9.10;99.90;;;9.02;100.00;99751.28;5202352;28;20064;-51
2023/12/22 10:11:00;;;;;;;5.32;2.10;;;9.10;99.90;;;9.04;100.00;99754.78;5201387;28;20038;-51
2023/12/22 10:13:34;;;;;;;12.43;2.30;;;9.20;99.90;;;9.08;100.00;99764.41;5191486;28;20404;-51
2023/12/22 10:16:07;;;;;;;8.10;2.10;;;9.20;99.90;;;9.10;100.00;99756.66;5185795;28;20348;-51
2023/12/22 10:18:41;;;;;;;7.68;2.08;;;9.20;99.90;;;9.09;100.00;99760.09;5190461;28;20064;-50
2023/12/22 10:21:14;;;;;;;9.95;2.13;;;9.20;99.90;;;9.14;100.00;99753.28;5188493;28;20047;-51
2023/12/22 10:23:46;;;;;;;7.93;2.00;;;9.20;99.90;;;9.12;100.00;99754.97;5186614;28;20053;-51
2023/12/22 10:26:18;;;;;;;5.18;1.75;;;9.20;99.90;;;9.20;100.00;99758.66;5200668;28;20059;-50
2023/12/22 10:28:52;;;;;;;5.13;1.48;;;9.30;99.90;;;9.17;100.00;99755.97;5194209;28;20052;-50
2023/12/22 10:31:25;;;;;;;6.80;2.25;;;9.30;99.90;;;9.19;100.00;99746.47;5185636;28;20053;-50
2023/12/22 10:33:59;;;;;;;6.03;1.85;;;9.30;99.90;;;9.17;100.00;99748.16;5182994;28;20081;-52
2023/12/22 10:36:31;;;;;;;3.85;1.65;;;9.30;99.90;;;9.19;100.00;99743.84;5187479;28;20045;-50
2023/12/22 10:39:04;;;;;;;8.05;2.17;;;9.30;99.90;;;9.24;100.00;99737.06;5200306;28;20049;-51
2023/12/22 10:41:36;;;;;;;4.13;1.90;;;9.30;99.90;;;9.15;100.00;99747.25;5184141;28;20041;-48
2023/12/22 10:44:09;;;;;;;5.82;1.83;;;9.30;99.90;;;9.08;100.00;99742.75;5180273;28;20056;-52
2023/12/22 10:46:41;;;;;;;8.82;2.70;;;9.20;99.90;;;9.05;100.00;99737.47;5189431;28;20512;-50
2023/12/22 10:49:16;;;;;;;4.97;1.88;;;9.20;99.90;;;9.02;100.00;99740.00;5207531;28;20046;-52